createdAt,value
2019-01-04T00:04:54.654Z,-0.12
2019-01-04T00:07:44.356Z,-0.23
2019-01-04T00:13:22.322Z,-0.49
2019-01-04T00:18:58.584Z,-0.32
2019-01-04T00:21:27.686Z,-0.18
2019-01-04T00:23:56.863Z,-0.33
2019-01-04T00:26:25.996Z,-0.33
2019-01-04T00:28:55.107Z,-0.45
2019-01-04T00:31:24.228Z,-0.46
2019-01-04T00:33:53.986Z,-0.47
2019-01-04T00:36:23.081Z,-0.67
2019-01-04T00:38:52.386Z,-0.86
2019-01-04T00:41:21.505Z,-0.95
2019-01-04T00:44:09.886Z,-1.02
2019-01-04T00:46:39.007Z,-1.04
2019-01-04T00:49:08.160Z,-1.01
2019-01-04T00:51:37.253Z,-1.09
2019-01-04T00:54:06.362Z,-1.14
2019-01-04T00:57:26.227Z,-1.05
2019-01-04T01:00:38.709Z,-1.23
2019-01-04T01:03:55.035Z,-1.19
2019-01-04T01:07:20.470Z,-0.99
2019-01-04T01:10:25.461Z,-1.16
2019-01-04T01:13:34.298Z,-1.18
2019-01-04T01:16:57.948Z,-1.10
2019-01-04T01:20:02.883Z,-0.94
2019-01-04T01:23:06.549Z,-1.09
2019-01-04T01:26:22.010Z,-0.99
2019-01-04T01:29:31.026Z,-0.95
2019-01-04T01:32:36.731Z,-1.06
2019-01-04T01:35:31.679Z,-1.19
2019-01-04T01:38:54.882Z,-1.10
2019-01-04T01:42:10.106Z,-1.08
2019-01-04T01:45:06.455Z,-1.09
2019-01-04T01:47:52.791Z,-1.00
2019-01-04T01:50:57.920Z,-0.87
2019-01-04T01:53:43.969Z,-0.86
2019-01-04T01:56:13.051Z,-1.08
2019-01-04T01:58:42.218Z,-0.94
2019-01-04T02:01:11.423Z,-0.97
2019-01-04T02:03:40.551Z,-0.79
2019-01-04T02:06:09.679Z,-0.83
2019-01-04T02:08:39.028Z,-0.89
2019-01-04T02:11:08.221Z,-1.01
2019-01-04T02:13:37.380Z,-0.78
2019-01-04T02:16:06.664Z,-1.01
2019-01-04T02:18:35.810Z,-0.93
2019-01-04T02:21:04.912Z,-0.87
2019-01-04T02:23:34.012Z,-0.90
2019-01-04T02:26:03.157Z,-0.83
2019-01-04T02:28:32.955Z,-0.83
2019-01-04T02:31:06.170Z,-0.72
2019-01-04T02:33:35.314Z,-0.70
2019-01-04T02:36:04.517Z,-0.79
2019-01-04T02:38:33.650Z,-0.97
2019-01-04T02:41:02.784Z,-0.84
2019-01-04T02:43:32.007Z,-0.75
2019-01-04T02:46:01.138Z,-0.76
2019-01-04T02:48:30.238Z,-0.77
2019-01-04T02:50:59.461Z,-0.75
2019-01-04T02:53:28.628Z,-0.70
2019-01-04T02:55:57.648Z,-0.66
2019-01-04T02:58:26.747Z,-0.65
2019-01-04T03:00:55.918Z,-0.58
2019-01-04T03:03:25.092Z,-0.50
2019-01-04T03:05:54.250Z,-0.52
2019-01-04T03:08:23.379Z,-0.52
2019-01-04T03:10:52.547Z,-0.64
2019-01-04T03:13:21.551Z,-0.64
2019-01-04T03:15:50.666Z,-0.46
2019-01-04T03:18:20.167Z,-0.46
2019-01-04T03:20:49.143Z,-0.64
2019-01-04T03:23:18.309Z,-0.63
2019-01-04T03:25:47.511Z,-0.67
2019-01-04T03:28:16.579Z,-0.76
2019-01-04T03:30:45.770Z,-0.47
2019-01-04T03:33:14.923Z,-0.64
2019-01-04T03:35:44.216Z,-0.75
2019-01-04T03:38:13.564Z,-0.66
2019-01-04T03:40:42.718Z,-0.74
2019-01-04T03:43:11.875Z,-0.66
2019-01-04T03:45:41.124Z,-0.71
2019-01-04T03:48:10.254Z,-0.78
2019-01-04T03:50:39.501Z,-0.69
2019-01-04T03:53:08.659Z,-0.86
2019-01-04T03:55:37.848Z,-0.82
2019-01-04T03:58:06.972Z,-0.89
2019-01-04T04:00:36.123Z,-0.91
2019-01-04T04:03:05.297Z,-0.82
2019-01-04T04:05:34.347Z,-0.85
2019-01-04T04:08:03.446Z,-0.87
2019-01-04T04:10:32.519Z,-0.82
2019-01-04T04:13:01.676Z,-0.76
2019-01-04T04:15:31.153Z,-0.80
2019-01-04T04:18:00.360Z,-0.80
2019-01-04T04:20:29.444Z,-0.79
2019-01-04T04:22:58.686Z,-0.76
2019-01-04T04:25:28.018Z,-0.71
2019-01-04T04:27:59.152Z,-0.78
2019-01-04T04:30:28.408Z,-0.74
2019-01-04T04:32:57.348Z,-0.71
2019-01-04T04:35:26.426Z,-0.68
2019-01-04T04:37:55.532Z,-0.77
2019-01-04T04:40:24.644Z,-0.70
2019-01-04T04:42:53.774Z,-0.68
2019-01-04T04:45:22.995Z,-0.61
2019-01-04T04:47:52.196Z,-0.62
2019-01-04T04:50:21.549Z,-0.63
2019-01-04T04:52:51.024Z,-0.68
2019-01-04T04:55:20.148Z,-0.67
2019-01-04T04:57:49.370Z,-0.60
2019-01-04T05:00:18.627Z,-0.55
2019-01-04T05:02:47.813Z,-0.53
2019-01-04T05:05:16.956Z,-0.51
2019-01-04T05:07:46.118Z,-0.52
2019-01-04T05:10:15.276Z,-0.49
2019-01-04T05:12:44.561Z,-0.49
2019-01-04T05:15:13.742Z,-0.50
2019-01-04T05:17:42.901Z,-0.48
2019-01-04T05:20:12.007Z,-0.46
2019-01-04T05:22:41.064Z,-0.47
2019-01-04T05:25:10.289Z,-0.47
2019-01-04T05:27:39.371Z,-0.49
2019-01-04T05:30:08.494Z,-0.43
2019-01-04T05:32:37.804Z,-0.35
2019-01-04T05:35:07.292Z,-0.46
2019-01-04T05:37:36.447Z,-0.43
2019-01-04T05:40:05.930Z,-0.38
2019-01-04T05:42:35.388Z,-0.42
2019-01-04T05:45:05.035Z,-0.40
2019-01-04T05:47:34.126Z,-0.41
2019-01-04T05:50:03.458Z,-0.35
2019-01-04T05:52:32.537Z,-0.29
2019-01-04T05:55:01.745Z,-0.20
2019-01-04T05:57:31.038Z,-0.30
2019-01-04T06:00:00.193Z,-0.20
2019-01-04T06:02:29.313Z,-0.20
2019-01-04T06:04:58.392Z,-0.15
2019-01-04T06:07:27.564Z,-0.10
2019-01-04T06:09:56.726Z,-0.10
2019-01-04T06:12:25.966Z,0.08
2019-01-04T06:14:55.077Z,0.03
2019-01-04T06:17:24.213Z,-0.02
2019-01-04T06:19:53.367Z,-0.04
2019-01-04T06:22:22.496Z,-0.06
2019-01-04T06:24:51.601Z,-0.10
2019-01-04T06:27:20.729Z,0.04
2019-01-04T06:29:49.902Z,0.07
2019-01-04T06:32:18.963Z,0.06
2019-01-04T06:34:49.639Z,0.00
2019-01-04T06:37:18.822Z,0.04
2019-01-04T06:39:48.110Z,0.16
2019-01-04T06:42:17.340Z,0.09
2019-01-04T06:44:46.523Z,0.09
2019-01-04T06:47:20.194Z,0.11
2019-01-04T06:49:50.549Z,0.19
2019-01-04T06:52:21.130Z,0.19
2019-01-04T06:55:26.458Z,0.21
2019-01-04T06:57:55.646Z,0.19
2019-01-04T07:00:24.823Z,0.28
2019-01-04T07:02:54.055Z,0.23
2019-01-04T07:05:23.223Z,0.36
2019-01-04T07:07:52.477Z,0.34
2019-01-04T07:10:21.733Z,0.34
2019-01-04T07:12:50.777Z,0.34
2019-01-04T07:15:19.957Z,0.38
2019-01-04T07:17:49.108Z,0.28
2019-01-04T07:20:18.250Z,0.28
2019-01-04T07:22:47.341Z,0.36
2019-01-04T07:25:16.433Z,0.32
2019-01-04T07:27:45.524Z,0.33
2019-01-04T07:30:14.708Z,0.36
2019-01-04T07:32:43.885Z,0.37
2019-01-04T07:35:13.052Z,0.37
2019-01-04T07:37:42.226Z,0.48
2019-01-04T07:40:11.459Z,0.46
2019-01-04T07:42:40.616Z,0.45
2019-01-04T07:45:11.050Z,0.54
2019-01-04T07:47:40.325Z,0.50
2019-01-04T07:50:10.169Z,0.52
2019-01-04T07:52:39.314Z,0.60
2019-01-04T07:55:10.764Z,0.50
2019-01-04T07:57:39.907Z,0.58
2019-01-04T08:00:14.112Z,0.55
2019-01-04T08:03:03.218Z,0.68
2019-01-04T08:05:51.504Z,0.64
2019-01-04T08:08:39.673Z,0.72
2019-01-04T08:14:21.486Z,0.63
2019-01-04T08:17:09.687Z,0.67
2019-01-04T08:19:57.834Z,0.66
2019-01-04T08:22:27.005Z,0.70
2019-01-04T08:25:15.174Z,0.74
2019-01-04T08:28:03.273Z,0.71
2019-01-04T08:30:51.502Z,0.70
2019-01-04T08:33:39.625Z,0.77
2019-01-04T08:36:20.631Z,0.84
2019-01-04T08:39:08.924Z,0.82
2019-01-04T08:41:57.223Z,0.89
2019-01-04T08:47:52.636Z,0.86
2019-01-04T08:54:07.208Z,0.90
2019-01-04T08:56:38.700Z,1.08
2019-01-04T08:59:27.032Z,0.97
2019-01-04T09:02:15.210Z,0.96
2019-01-04T09:05:03.539Z,1.04
2019-01-04T09:07:51.766Z,0.98
2019-01-04T09:10:21.302Z,0.99
2019-01-04T09:13:09.524Z,0.97
2019-01-04T09:15:57.846Z,0.96
2019-01-04T09:18:46.246Z,0.99
2019-01-04T09:21:15.431Z,1.11
2019-01-04T09:24:45.161Z,1.06
2019-01-04T09:30:48.453Z,0.96
2019-01-04T09:33:36.633Z,1.01
2019-01-04T09:36:25.144Z,1.02
2019-01-04T09:38:55.098Z,1.12
2019-01-04T09:41:45.292Z,1.03
2019-01-04T09:44:54.137Z,0.98
2019-01-04T09:47:23.403Z,1.03
2019-01-04T09:50:11.552Z,1.08
2019-01-04T09:52:41.074Z,1.11
2019-01-04T09:57:59.107Z,1.10
2019-01-04T10:03:35.434Z,1.09
2019-01-04T10:06:04.903Z,1.06
2019-01-04T10:08:53.082Z,1.06
2019-01-04T10:11:22.255Z,1.09
2019-01-04T10:13:51.378Z,1.12
2019-01-04T10:16:20.536Z,1.11
2019-01-04T10:21:38.728Z,1.10
2019-01-04T10:27:34.041Z,1.13
2019-01-04T10:30:42.898Z,1.15
2019-01-04T10:33:30.978Z,1.18
2019-01-04T10:36:19.227Z,1.27
2019-01-04T10:42:14.465Z,1.21
2019-01-04T10:45:02.647Z,1.28
2019-01-04T10:50:39.025Z,1.30
2019-01-04T10:53:27.198Z,1.29
2019-01-04T10:56:15.437Z,1.24
2019-01-04T11:02:10.692Z,1.28
2019-01-04T11:07:52.735Z,1.34
2019-01-04T11:10:40.924Z,1.37
2019-01-04T11:16:36.167Z,1.43
2019-01-04T11:19:05.318Z,1.47
2019-01-04T11:25:06.898Z,1.44
2019-01-04T11:28:05.431Z,1.42
2019-01-04T11:30:57.507Z,1.46
2019-01-04T11:34:11.331Z,1.34
2019-01-04T11:37:18.593Z,1.39
2019-01-04T11:40:13.793Z,1.38
2019-01-04T11:43:21.127Z,1.42
2019-01-04T11:46:11.913Z,1.40
2019-01-04T11:49:19.169Z,1.48
2019-01-04T11:52:31.127Z,1.47
2019-01-04T11:55:18.321Z,1.41
2019-01-04T11:58:06.512Z,1.46
2019-01-04T12:00:55.028Z,1.49
2019-01-04T12:03:43.184Z,1.54
2019-01-04T12:09:27.299Z,1.52
2019-01-04T12:12:15.477Z,1.53
2019-01-04T12:17:51.721Z,1.60
2019-01-04T12:20:20.788Z,1.61
2019-01-04T12:22:49.941Z,1.61
2019-01-04T12:25:19.146Z,1.66
2019-01-04T12:27:48.255Z,1.67
2019-01-04T12:30:17.323Z,1.60
2019-01-04T12:32:46.452Z,1.60
2019-01-04T12:35:15.543Z,1.58
2019-01-04T12:37:44.734Z,1.54
2019-01-04T12:40:13.907Z,1.59
2019-01-04T12:42:43.084Z,1.62
2019-01-04T12:45:12.316Z,1.62
2019-01-04T12:47:41.409Z,1.63
2019-01-04T12:50:10.588Z,1.63
2019-01-04T12:52:40.020Z,1.66
2019-01-04T12:55:28.315Z,1.64
2019-01-04T12:58:16.596Z,1.68
2019-01-04T13:03:53.111Z,1.77
2019-01-04T13:06:22.298Z,1.79
2019-01-04T13:08:51.917Z,1.74
2019-01-04T13:11:33.436Z,1.74
2019-01-04T13:14:03.344Z,1.76
2019-01-04T13:16:33.027Z,1.74
2019-01-04T13:19:02.388Z,1.73
2019-01-04T13:21:31.879Z,1.76
2019-01-04T13:24:01.213Z,1.79
2019-01-04T13:26:30.632Z,1.84
2019-01-04T13:29:00.186Z,1.84
2019-01-04T13:31:29.551Z,1.82
2019-01-04T13:33:59.021Z,1.92
2019-01-04T13:36:28.475Z,1.95
2019-01-04T13:38:57.924Z,1.90
2019-01-04T13:41:27.273Z,1.91
2019-01-04T13:43:56.672Z,1.90
2019-01-04T13:46:26.125Z,1.89
2019-01-04T13:48:55.527Z,1.91
2019-01-04T13:51:24.878Z,1.92
2019-01-04T13:53:54.207Z,1.94
2019-01-04T13:56:23.529Z,1.93
2019-01-04T13:58:52.940Z,2.03
2019-01-04T14:01:22.359Z,1.98
2019-01-04T14:04:10.521Z,1.99
2019-01-04T14:06:39.685Z,1.95
2019-01-04T14:09:09.021Z,2.00
2019-01-04T14:11:38.156Z,1.98
2019-01-04T14:14:07.294Z,1.95
2019-01-04T14:16:36.405Z,1.94
2019-01-04T14:19:05.577Z,1.95
2019-01-04T14:21:34.795Z,1.97
2019-01-04T14:24:03.872Z,1.98
2019-01-04T14:26:51.311Z,1.93
2019-01-04T14:29:20.413Z,1.90
2019-01-04T14:31:49.542Z,1.97
2019-01-04T14:34:18.643Z,1.99
2019-01-04T14:36:47.898Z,2.02
2019-01-04T14:39:17.019Z,1.98
2019-01-04T14:41:46.194Z,1.98
2019-01-04T14:44:15.352Z,2.07
2019-01-04T14:46:44.825Z,2.03
2019-01-04T14:49:14.738Z,1.98
2019-01-04T14:51:43.861Z,1.99
2019-01-04T14:54:13.028Z,1.94
2019-01-04T14:56:42.294Z,1.92
2019-01-04T14:59:11.460Z,2.00
2019-01-04T15:01:40.578Z,2.01
2019-01-04T15:04:09.706Z,2.02
2019-01-04T15:06:38.811Z,2.00
2019-01-04T15:09:08.342Z,2.00
2019-01-04T15:11:37.983Z,2.00
2019-01-04T15:14:07.118Z,2.04
2019-01-04T15:16:36.288Z,1.98
2019-01-04T15:19:05.422Z,2.01
2019-01-04T15:21:34.763Z,1.99
2019-01-04T15:24:03.903Z,1.98
2019-01-04T15:26:33.067Z,1.92
2019-01-04T15:29:02.608Z,1.98
2019-01-04T15:31:31.841Z,1.95
2019-01-04T15:34:00.997Z,1.89
2019-01-04T15:36:30.653Z,1.91
2019-01-04T15:38:59.765Z,1.90
2019-01-04T15:41:29.109Z,1.88
2019-01-04T15:43:58.263Z,1.95
2019-01-04T15:46:27.397Z,1.96
2019-01-04T15:48:56.779Z,1.98
2019-01-04T15:51:25.918Z,1.95
2019-01-04T15:53:55.109Z,1.94
2019-01-04T15:56:24.229Z,1.93
2019-01-04T15:58:53.382Z,2.09
2019-01-04T16:01:22.517Z,2.03
2019-01-04T16:03:51.652Z,1.96
2019-01-04T16:06:21.184Z,1.96
2019-01-04T16:08:50.514Z,1.95
2019-01-04T16:11:19.636Z,1.97
2019-01-04T16:13:48.866Z,1.91
2019-01-04T16:16:18.008Z,1.94
2019-01-04T16:18:47.203Z,1.96
2019-01-04T16:21:16.383Z,1.94
2019-01-04T16:23:45.473Z,1.95
2019-01-04T16:26:14.617Z,1.97
2019-01-04T16:28:43.745Z,1.96
2019-01-04T16:31:12.874Z,1.94
2019-01-04T16:33:42.036Z,2.04
2019-01-04T16:36:11.358Z,1.99
2019-01-04T16:38:40.544Z,1.96
2019-01-04T16:41:09.931Z,1.98
2019-01-04T16:43:39.096Z,1.99
2019-01-04T16:46:08.255Z,1.98
2019-01-04T16:48:37.364Z,1.96
2019-01-04T16:51:06.615Z,1.97
2019-01-04T16:53:35.711Z,1.97
2019-01-04T16:56:05.037Z,2.04
2019-01-04T16:58:34.164Z,2.03
2019-01-04T17:01:03.256Z,2.03
2019-01-04T17:03:32.490Z,2.07
2019-01-04T17:06:01.703Z,2.10
2019-01-04T17:08:31.101Z,2.11
2019-01-04T17:11:00.618Z,2.14
2019-01-04T17:13:29.798Z,2.10
2019-01-04T17:16:00.337Z,2.13
2019-01-04T17:18:29.620Z,2.11
2019-01-04T17:20:58.831Z,2.13
2019-01-04T17:23:28.719Z,2.15
2019-01-04T17:25:57.978Z,2.10
2019-01-04T17:28:27.279Z,2.14
2019-01-04T17:30:56.550Z,2.15
2019-01-04T17:33:25.705Z,2.18
2019-01-04T17:35:55.476Z,2.15
2019-01-04T17:38:25.176Z,2.24
2019-01-04T17:40:54.574Z,2.23
2019-01-04T17:43:23.889Z,2.21
2019-01-04T17:45:53.062Z,2.17
2019-01-04T17:48:22.266Z,2.20
2019-01-04T17:50:51.729Z,2.22
2019-01-04T17:53:20.863Z,2.23
2019-01-04T17:55:50.171Z,2.23
2019-01-04T17:58:19.312Z,2.21
2019-01-04T18:00:48.550Z,2.19
2019-01-04T18:03:17.735Z,2.21
2019-01-04T18:05:46.867Z,2.23
2019-01-04T18:08:16.117Z,2.24
2019-01-04T18:10:45.255Z,2.23
2019-01-04T18:13:14.459Z,2.29
2019-01-04T18:15:43.656Z,2.31
2019-01-04T18:18:12.784Z,2.35
2019-01-04T18:20:49.047Z,2.33
2019-01-04T18:23:18.248Z,2.33
2019-01-04T18:25:47.336Z,2.36
2019-01-04T18:28:16.710Z,2.33
2019-01-04T18:30:45.870Z,2.34
2019-01-04T18:33:14.992Z,2.41
2019-01-04T18:35:44.213Z,2.52
2019-01-04T18:38:14.094Z,2.44
2019-01-04T18:40:43.521Z,2.47
2019-01-04T18:43:12.897Z,2.47
2019-01-04T18:45:42.074Z,2.49
2019-01-04T18:48:11.225Z,2.46
2019-01-04T18:50:40.356Z,2.53
2019-01-04T18:53:09.510Z,2.49
2019-01-04T18:55:38.702Z,2.51
2019-01-04T18:58:07.924Z,2.51
2019-01-04T19:00:37.067Z,2.60
2019-01-04T19:03:06.874Z,2.58
2019-01-04T19:05:36.022Z,2.62
2019-01-04T19:08:05.182Z,2.60
2019-01-04T19:10:34.640Z,2.59
2019-01-04T19:13:03.803Z,2.60
2019-01-04T19:15:32.948Z,2.60
2019-01-04T19:18:02.714Z,2.60
2019-01-04T19:20:32.737Z,2.60
2019-01-04T19:23:03.024Z,2.63
2019-01-04T19:25:32.553Z,2.65
2019-01-04T19:28:01.955Z,2.63
2019-01-04T19:30:31.643Z,2.60
2019-01-04T19:33:01.025Z,2.64
2019-01-04T19:35:30.610Z,2.69
2019-01-04T19:38:01.538Z,2.67
2019-01-04T19:40:30.727Z,2.66
2019-01-04T19:42:59.890Z,2.71
2019-01-04T19:45:29.070Z,2.73
2019-01-04T19:47:58.659Z,2.73
2019-01-04T19:50:27.817Z,2.75
2019-01-04T19:52:56.982Z,2.76
2019-01-04T19:55:26.266Z,2.72
2019-01-04T19:57:55.429Z,2.75
2019-01-04T20:00:24.594Z,2.73
2019-01-04T20:02:53.865Z,2.80
2019-01-04T20:05:43.367Z,2.81
2019-01-04T20:09:05.913Z,2.74
2019-01-04T20:12:58.823Z,2.76
2019-01-04T20:16:01.453Z,2.74
2019-01-04T20:19:00.111Z,2.76
2019-01-04T20:21:43.679Z,2.71
2019-01-04T20:24:40.913Z,2.82
2019-01-04T20:27:28.408Z,2.77
2019-01-04T20:30:33.467Z,2.76
2019-01-04T20:33:28.134Z,2.79
2019-01-04T20:36:32.472Z,2.82
2019-01-04T20:39:19.321Z,2.85
2019-01-04T20:42:13.982Z,2.90
2019-01-04T20:45:02.741Z,2.88
2019-01-04T20:47:49.584Z,2.87
2019-01-04T20:53:30.147Z,2.91
2019-01-04T20:56:30.260Z,2.93
2019-01-04T20:59:29.386Z,2.94
2019-01-04T21:02:16.781Z,2.95
2019-01-04T21:05:03.733Z,2.90
2019-01-04T21:08:07.335Z,2.91
2019-01-04T21:10:55.434Z,2.95
2019-01-04T21:14:02.569Z,2.96
2019-01-04T21:17:11.384Z,2.97
2019-01-04T21:20:18.600Z,2.93
2019-01-04T21:23:06.666Z,2.95
2019-01-04T21:26:06.240Z,2.96
2019-01-04T21:28:54.339Z,3.01
2019-01-04T21:31:42.464Z,2.94
2019-01-04T21:34:47.117Z,2.93
2019-01-04T21:37:54.362Z,3.00
2019-01-04T21:41:01.631Z,3.04
2019-01-04T21:44:08.728Z,3.07
2019-01-04T21:47:13.595Z,3.03
2019-01-04T21:50:20.850Z,2.98
2019-01-04T21:53:28.428Z,3.06
2019-01-04T21:56:37.107Z,3.13
2019-01-04T22:02:39.254Z,3.07
2019-01-04T22:05:27.361Z,3.13
2019-01-04T22:08:34.483Z,3.17
2019-01-04T22:11:41.640Z,3.13
2019-01-04T22:14:48.710Z,3.19
2019-01-04T22:17:36.727Z,3.15
2019-01-04T22:20:45.419Z,3.20
2019-01-04T22:23:45.136Z,3.21
2019-01-04T22:26:52.172Z,3.24
2019-01-04T22:29:59.310Z,3.21
2019-01-04T22:33:08.376Z,3.27
2019-01-04T22:36:15.461Z,3.23
2019-01-04T22:39:22.527Z,3.28
2019-01-04T22:42:29.637Z,3.26
2019-01-04T22:45:36.720Z,3.33
2019-01-04T22:48:36.695Z,3.32
2019-01-04T22:51:45.602Z,3.26
2019-01-04T22:54:52.737Z,3.35
2019-01-04T22:57:40.721Z,3.31
2019-01-04T23:00:54.147Z,3.33
2019-01-04T23:07:10.578Z,3.37
2019-01-04T23:10:17.647Z,3.39
2019-01-04T23:16:14.774Z,3.36
2019-01-04T23:19:21.864Z,3.40
2019-01-04T23:22:22.084Z,3.41
2019-01-04T23:25:29.223Z,3.45
2019-01-04T23:28:17.271Z,3.44
2019-01-04T23:31:24.450Z,3.44
2019-01-04T23:34:33.757Z,3.44
2019-01-04T23:37:40.906Z,3.43
2019-01-04T23:40:49.476Z,3.49
2019-01-04T23:46:33.834Z,3.51
2019-01-04T23:49:41.044Z,3.51
2019-01-04T23:52:29.100Z,3.53
2019-01-04T23:55:36.241Z,3.56
2019-01-04T23:58:43.349Z,3.53
